Time;durP1;ratioP1;P1;durP2;ratioP2;P2;SDS_P1;SDS_P2;PMS_P1;PMS_P2;Temp;Humidity;BMP_temperature;BMP_pressure;BME280_temperature;BME280_humidity;BME280_pressure;Samples;Min_cycle;Max_cycle;Signal;HPM_P1;HPM_P2
2022/03/29 00:07:39;;;;;;;4.32;3.40;;;;;;;;;;20214909;29;20147;-89
2022/03/29 00:17:41;;;;;;;4.43;3.45;;;;;;;;;;20198622;29;20397;-89
2022/03/29 00:27:42;;;;;;;3.75;2.83;;;;;;;;;;20183417;29;20376;-89
2022/03/29 00:37:44;;;;;;;4.38;3.22;;;;;;;;;;20201697;29;20049;-89
2022/03/29 00:47:46;;;;;;;4.07;2.72;;;;;;;;;;20194043;29;20041;-89
2022/03/29 00:57:49;;;;;;;3.75;3.10;;;;;;;;;;20198837;29;20587;-89
2022/03/29 01:07:53;;;;;;;4.20;3.10;;;;;;;;;;20232440;29;20060;-88
2022/03/29 01:17:55;;;;;;;4.90;3.15;;;;;;;;;;20209176;29;20041;-89
2022/03/29 01:27:58;;;;;;;3.95;2.75;;;;;;;;;;20208751;29;20055;-88
2022/03/29 01:38:00;;;;;;;3.10;2.47;;;;;;;;;;20219161;29;20041;-89
2022/03/29 01:48:02;;;;;;;3.55;2.55;;;;;;;;;;20242600;29;20155;-88
2022/03/29 01:58:04;;;;;;;4.28;2.85;;;;;;;;;;20229002;29;20045;-88
2022/03/29 02:08:07;;;;;;;3.22;2.55;;;;;;;;;;20202397;29;20061;-88
2022/03/29 02:18:08;;;;;;;3.10;2.20;;;;;;;;;;20200201;29;20056;-88
2022/03/29 02:28:10;;;;;;;3.55;2.50;;;;;;;;;;20231672;29;20491;-88
2022/03/29 02:38:13;;;;;;;2.67;2.40;;;;;;;;;;20195036;29;20052;-88
2022/03/29 02:48:15;;;;;;;2.95;2.50;;;;;;;;;;20181115;29;20527;-89
2022/03/29 02:58:17;;;;;;;3.05;2.67;;;;;;;;;;20209860;29;20071;-88
2022/03/29 03:08:19;;;;;;;2.97;2.42;;;;;;;;;;20187410;29;20438;-88
2022/03/29 03:18:21;;;;;;;3.05;2.20;;;;;;;;;;20189479;29;20484;-88
2022/03/29 03:28:23;;;;;;;3.38;2.67;;;;;;;;;;20205992;29;20048;-88
2022/03/29 03:38:25;;;;;;;2.75;2.35;;;;;;;;;;20228529;29;20145;-88
2022/03/29 03:48:26;;;;;;;2.95;2.20;;;;;;;;;;20194879;29;20048;-88
2022/03/29 03:58:28;;;;;;;3.17;2.53;;;;;;;;;;20204568;29;20049;-88
2022/03/29 04:08:30;;;;;;;3.00;2.40;;;;;;;;;;20182681;29;20448;-88
2022/03/29 04:18:32;;;;;;;2.72;2.22;;;;;;;;;;20201450;29;20491;-88
2022/03/29 04:28:33;;;;;;;3.08;2.42;;;;;;;;;;20177205;29;20053;-87
2022/03/29 04:38:35;;;;;;;2.42;2.20;;;;;;;;;;20200698;29;20053;-87
2022/03/29 04:48:37;;;;;;;2.60;2.10;;;;;;;;;;20236850;29;20071;-81
2022/03/29 04:58:39;;;;;;;2.63;2.00;;;;;;;;;;20197863;29;20076;-91
2022/03/29 05:08:40;;;;;;;2.45;2.20;;;;;;;;;;20185215;29;20084;-87
2022/03/29 05:18:43;;;;;;;2.00;1.80;;;;;;;;;;20183302;29;20498;-87
2022/03/29 05:28:44;;;;;;;1.95;1.63;;;;;;;;;;20199263;29;20063;-88
2022/03/29 05:38:51;;;;;;;2.25;1.90;;;;;;;;;;20181683;29;20432;-84
2022/03/29 05:48:53;;;;;;;2.42;2.03;;;;;;;;;;20197722;29;20045;-86
2022/03/29 05:58:55;;;;;;;2.55;1.90;;;;;;;;;;20181256;29;20475;-88
2022/03/29 06:08:57;;;;;;;2.70;1.90;;;;;;;;;;20188000;29;20052;-88
2022/03/29 06:18:59;;;;;;;2.40;1.98;;;;;;;;;;20243426;29;20048;-91
2022/03/29 06:29:00;;;;;;;5.57;2.40;;;;;;;;;;20256129;29;20096;-88
2022/03/29 06:39:02;;;;;;;3.70;2.80;;;;;;;;;;20271318;29;20049;-89
2022/03/29 06:49:04;;;;;;;3.78;2.72;;;;;;;;;;20270782;29;20064;-88
2022/03/29 06:59:06;;;;;;;3.97;2.97;;;;;;;;;;20269173;29;20052;-88
2022/03/29 07:19:38;;;;;;;4.65;3.30;;;;;;;;;;20268210;29;20052;-88
2022/03/29 07:29:41;;;;;;;4.97;3.67;;;;;;;;;;20250935;29;20054;-90
2022/03/29 07:39:42;;;;;;;4.72;3.83;;;;;;;;;;20249932;29;20049;-89
2022/03/29 07:49:45;;;;;;;4.50;3.67;;;;;;;;;;20249651;29;20420;-88
2022/03/29 08:10:29;;;;;;;5.97;4.35;;;;;;;;;;20265718;29;20088;-89
2022/03/29 08:20:31;;;;;;;5.70;4.00;;;;;;;;;;20265061;29;20422;-89
2022/03/29 08:30:34;;;;;;;5.78;4.53;;;;;;;;;;20264059;29;20045;-88
2022/03/29 08:40:36;;;;;;;5.70;3.90;;;;;;;;;;20247092;29;20100;-90
2022/03/29 08:50:40;;;;;;;5.97;4.05;;;;;;;;;;20246966;29;20063;-89
2022/03/29 09:00:42;;;;;;;5.78;4.57;;;;;;;;;;20263345;29;20076;-89
2022/03/29 09:10:45;;;;;;;6.20;4.57;;;;;;;;;;20263137;29;20510;-90
2022/03/29 09:21:04;;;;;;;7.07;4.88;;;;;;;;;;20241517;29;20052;-89
2022/03/29 09:31:27;;;;;;;6.55;5.13;;;;;;;;;;20276705;29;20056;-90
2022/03/29 09:41:30;;;;;;;6.40;5.10;;;;;;;;;;20275641;29;20066;-90
2022/03/29 09:52:11;;;;;;;6.53;5.38;;;;;;;;;;20274443;29;20056;-90
2022/03/29 10:02:13;;;;;;;6.47;5.13;;;;;;;;;;20242152;29;20056;-89
2022/03/29 10:12:16;;;;;;;8.20;5.55;;;;;;;;;;20274242;29;20558;-90
2022/03/29 10:22:18;;;;;;;7.03;5.07;;;;;;;;;;20272963;29;20147;-90
2022/03/29 10:32:27;;;;;;;4.68;4.13;;;;;;;;;;20254812;29;20076;-89
2022/03/29 10:42:32;;;;;;;7.32;5.35;;;;;;;;;;20254583;29;20075;-89
2022/03/29 10:52:41;;;;;;;6.97;5.28;;;;;;;;;;20270614;29;20048;-90
2022/03/29 11:03:06;;;;;;;8.15;5.72;;;;;;;;;;20269414;29;20088;-90
2022/03/29 11:13:28;;;;;;;8.20;4.93;;;;;;;;;;20261975;29;20850;-90
2022/03/29 11:23:32;;;;;;;6.63;5.10;;;;;;;;;;20251742;29;20075;-89
2022/03/29 11:33:34;;;;;;;7.13;4.43;;;;;;;;;;20203846;29;20052;-86
2022/03/29 11:43:36;;;;;;;7.53;4.95;;;;;;;;;;20180210;29;20057;-88
2022/03/29 11:53:39;;;;;;;8.02;5.18;;;;;;;;;;20157245;29;20144;-87
2022/03/29 12:03:42;;;;;;;5.45;4.32;;;;;;;;;;20188355;29;20403;-87
2022/03/29 12:13:45;;;;;;;5.70;4.35;;;;;;;;;;20189571;29;20052;-84
2022/03/29 12:23:48;;;;;;;5.85;3.67;;;;;;;;;;20196793;29;20559;-88
2022/03/29 12:33:51;;;;;;;6.75;4.10;;;;;;;;;;20184102;29;20507;-88
2022/03/29 12:43:53;;;;;;;6.13;3.90;;;;;;;;;;20151425;29;20061;-88
2022/03/29 12:53:56;;;;;;;5.93;4.25;;;;;;;;;;20190677;29;20055;-88
2022/03/29 13:04:07;;;;;;;6.95;4.43;;;;;;;;;;20196130;29;20056;-88
2022/03/29 13:14:10;;;;;;;6.57;3.95;;;;;;;;;;20185903;29;1205267;-88
2022/03/29 13:24:14;;;;;;;6.38;4.03;;;;;;;;;;20258179;29;20057;-89
2022/03/29 13:34:16;;;;;;;8.13;4.53;;;;;;;;;;20198901;29;20049;-89
2022/03/29 13:44:18;;;;;;;6.15;3.58;;;;;;;;;;20197983;29;20047;-88
2022/03/29 13:54:24;;;;;;;6.80;4.10;;;;;;;;;;20181807;29;20130;-95
2022/03/29 14:04:28;;;;;;;6.18;4.22;;;;;;;;;;20165982;29;20079;-89
2022/03/29 14:14:30;;;;;;;6.35;4.22;;;;;;;;;;20180127;29;20057;-89
2022/03/29 14:24:32;;;;;;;6.43;3.90;;;;;;;;;;20148611;29;20587;-86
2022/03/29 14:34:34;;;;;;;6.95;3.78;;;;;;;;;;20195679;29;20053;-86
2022/03/29 14:44:45;;;;;;;5.97;3.88;;;;;;;;;;20162736;29;20408;-86
2022/03/29 14:54:47;;;;;;;5.22;3.25;;;;;;;;;;20164838;29;20049;-86
2022/03/29 15:04:49;;;;;;;5.35;3.22;;;;;;;;;;20175961;29;20121;-90
2022/03/29 15:14:55;;;;;;;6.45;3.80;;;;;;;;;;20174261;29;20059;-89
2022/03/29 15:24:57;;;;;;;6.63;4.13;;;;;;;;;;20183350;29;20105;-89
2022/03/29 15:34:59;;;;;;;6.50;3.42;;;;;;;;;;20244270;29;20120;-89
2022/03/29 15:45:01;;;;;;;5.95;3.78;;;;;;;;;;20173669;29;20047;-88
2022/03/29 15:55:04;;;;;;;6.93;3.75;;;;;;;;;;20172224;29;20055;-88
2022/03/29 16:05:07;;;;;;;7.15;4.38;;;;;;;;;;20171518;29;20057;-91
2022/03/29 16:15:12;;;;;;;9.68;4.38;;;;;;;;;;20171331;29;20065;-91
2022/03/29 16:25:14;;;;;;;6.93;3.77;;;;;;;;;;20170033;29;20056;-89
2022/03/29 16:35:16;;;;;;;6.38;3.78;;;;;;;;;;20170310;29;20048;-90
2022/03/29 16:45:18;;;;;;;7.10;3.78;;;;;;;;;;20186536;29;20041;-91
2022/03/29 16:55:20;;;;;;;7.57;3.80;;;;;;;;;;20186384;29;20048;-91
2022/03/29 17:05:22;;;;;;;6.90;3.55;;;;;;;;;;20169457;29;20140;-90
2022/03/29 17:15:24;;;;;;;6.57;3.17;;;;;;;;;;20230987;29;20088;-92
2022/03/29 17:25:26;;;;;;;6.63;3.42;;;;;;;;;;20246190;29;20055;-86
2022/03/29 17:35:28;;;;;;;6.57;3.60;;;;;;;;;;20264069;29;20045;-88
2022/03/29 17:45:30;;;;;;;4.40;3.00;;;;;;;;;;20259260;29;20084;-89
2022/03/29 17:55:31;;;;;;;6.50;3.53;;;;;;;;;;20252783;29;20056;-87
2022/03/29 18:05:34;;;;;;;5.45;3.40;;;;;;;;;;20219947;29;20539;-87
2022/03/29 18:15:38;;;;;;;6.07;3.22;;;;;;;;;;20272879;29;20064;-88
2022/03/29 18:25:41;;;;;;;5.68;3.50;;;;;;;;;;20180955;29;20107;-87
2022/03/29 18:35:43;;;;;;;6.22;3.35;;;;;;;;;;20213181;29;20504;-88
2022/03/29 18:45:45;;;;;;;4.72;2.58;;;;;;;;;;20209008;29;20570;-88
2022/03/29 18:55:47;;;;;;;5.68;3.25;;;;;;;;;;20221352;29;20105;-88
2022/03/29 19:05:49;;;;;;;5.45;3.35;;;;;;;;;;20206406;29;20056;-89
2022/03/29 19:15:51;;;;;;;4.97;2.90;;;;;;;;;;20219076;29;20067;-87
2022/03/29 19:25:56;;;;;;;5.25;2.65;;;;;;;;;;20217211;29;20044;-89
2022/03/29 19:36:00;;;;;;;4.15;2.67;;;;;;;;;;20209223;29;20056;-88
2022/03/29 19:46:05;;;;;;;3.85;2.85;;;;;;;;;;20205651;29;20052;-87
2022/03/29 19:56:26;;;;;;;4.15;2.53;;;;;;;;;;20202197;29;20064;-88
2022/03/29 20:06:28;;;;;;;6.50;3.35;;;;;;;;;;20213492;29;20041;-87
2022/03/29 20:16:32;;;;;;;3.38;2.50;;;;;;;;;;20155769;29;20061;-87
2022/03/29 20:26:39;;;;;;;3.13;2.30;;;;;;;;;;20193060;29;20048;-86
2022/03/29 20:36:41;;;;;;;3.85;2.40;;;;;;;;;;20191375;29;20182;-87
2022/03/29 20:46:46;;;;;;;3.08;2.47;;;;;;;;;;20201673;29;20041;-87
2022/03/29 20:56:48;;;;;;;3.77;2.37;;;;;;;;;;20202833;29;20089;-87
2022/03/29 21:06:50;;;;;;;4.22;2.33;;;;;;;;;;20192060;29;20045;-88
2022/03/29 21:16:57;;;;;;;3.63;2.20;;;;;;;;;;20219553;29;20057;-88
2022/03/29 21:26:59;;;;;;;3.33;2.30;;;;;;;;;;20258259;29;20056;-87
2022/03/29 21:37:01;;;;;;;3.42;2.15;;;;;;;;;;20198815;29;20065;-88
2022/03/29 21:47:05;;;;;;;4.55;2.55;;;;;;;;;;20248351;29;20116;-88
2022/03/29 21:57:07;;;;;;;2.95;2.10;;;;;;;;;;20217047;29;20064;-87
2022/03/29 22:07:27;;;;;;;3.13;2.08;;;;;;;;;;20224351;29;20509;-86
2022/03/29 22:17:30;;;;;;;3.92;2.47;;;;;;;;;;20216505;29;20096;-86
2022/03/29 22:27:33;;;;;;;3.45;1.90;;;;;;;;;;20199835;29;20052;-88
2022/03/29 22:37:37;;;;;;;4.28;2.60;;;;;;;;;;20216896;29;20053;-88
2022/03/29 22:47:39;;;;;;;3.03;1.98;;;;;;;;;;20247234;29;20059;-88
2022/03/29 22:57:44;;;;;;;3.40;2.40;;;;;;;;;;20222076;29;20099;-88
2022/03/29 23:07:46;;;;;;;2.50;2.00;;;;;;;;;;20230651;29;20411;-88
2022/03/29 23:17:48;;;;;;;2.85;2.25;;;;;;;;;;20175349;29;20053;-88
2022/03/29 23:27:49;;;;;;;4.22;2.47;;;;;;;;;;20200186;29;20053;-88
2022/03/29 23:37:51;;;;;;;3.03;2.05;;;;;;;;;;20239798;29;20426;-88
2022/03/29 23:47:53;;;;;;;3.80;2.35;;;;;;;;;;20223392;29;20112;-89
2022/03/29 23:57:54;;;;;;;4.47;2.25;;;;;;;;;;20226301;29;20049;-88
